Details for Delta Airlines at KSEA




Go Back


Latest METAR
Local Time

KSEA 240753Z 21005KT 10SM SCT090 13/11 A2995 RMK AO2 SLP147 T01330106 402670128 $

24/05/2018, 00:58:47

Description
Results
Delta Airlines Logo
Number of Pilots based at KSEA
0 Pilots Based here
Number of Delta Airlines Flights Departed from KSEA
2 Flights Departed
Number of Delta Airlines Flights Arrived at KSEA
2 Flights Arrived
Number of Delta Airlines Schedules Departing from KSEA
214 Schedules
Number of Delta Airlines Schedules Arriving at KSEA
225 Schedules
Number of Delta Airlines Schedules Departing from KSEA availible today
127 Schedules Today
Number of Delta Airlines Schedules Arriving at KSEA availible today
130 Schedules Today
Average Landing Rate at KSEA
-258 fpm
Delta Airlines Average Landing Rate at KSEA
-197 fpm
Total Fuel Purchased at KSEA by Delta Airlines
10,707.96 kgs / 23,606.77 lbs

Pilots Based at KSEA


Pilot ID
Pilot Name
Pilot Rank
No. of Flights
No. of Flying Hours
There are no pilots assigned to this hub!   Will you be the first?
Content